sensor_id;sensor_type;location;lat;lon;timestamp;temperature;humidity
12268;DHT22;6196;48.398;11.736;2023-08-24T00:01:58;21.50;99.90
12268;DHT22;6196;48.398;11.736;2023-08-24T00:04:25;21.40;99.90
12268;DHT22;6196;48.398;11.736;2023-08-24T00:06:51;21.20;99.90
12268;DHT22;6196;48.398;11.736;2023-08-24T00:09:18;21.20;99.90
12268;DHT22;6196;48.398;11.736;2023-08-24T00:11:45;21.20;99.90
12268;DHT22;6196;48.398;11.736;2023-08-24T00:14:12;21.20;99.90
12268;DHT22;6196;48.398;11.736;2023-08-24T00:16:39;21.20;99.90
12268;DHT22;6196;48.398;11.736;2023-08-24T00:19:07;21.20;99.90
12268;DHT22;6196;48.398;11.736;2023-08-24T00:21:34;21.30;99.90
12268;DHT22;6196;48.398;11.736;2023-08-24T00:24:01;21.30;99.90
12268;DHT22;6196;48.398;11.736;2023-08-24T00:26:28;21.30;99.90
12268;DHT22;6196;48.398;11.736;2023-08-24T00:28:55;21.20;99.90
12268;DHT22;6196;48.398;11.736;2023-08-24T00:31:22;21.20;99.90
12268;DHT22;6196;48.398;11.736;2023-08-24T00:33:49;21.20;99.90
12268;DHT22;6196;48.398;11.736;2023-08-24T00:36:19;21.20;99.90
12268;DHT22;6196;48.398;11.736;2023-08-24T00:38:47;21.10;99.90
12268;DHT22;6196;48.398;11.736;2023-08-24T00:41:17;21.00;99.90
12268;DHT22;6196;48.398;11.736;2023-08-24T00:43:44;21.00;99.90
12268;DHT22;6196;48.398;11.736;2023-08-24T00:46:11;21.00;99.90
12268;DHT22;6196;48.398;11.736;2023-08-24T00:48:38;20.90;99.90
12268;DHT22;6196;48.398;11.736;2023-08-24T00:51:05;20.80;99.90
12268;DHT22;6196;48.398;11.736;2023-08-24T00:53:32;20.90;99.90
12268;DHT22;6196;48.398;11.736;2023-08-24T00:56:00;20.80;99.90
12268;DHT22;6196;48.398;11.736;2023-08-24T00:58:27;20.80;99.90
12268;DHT22;6196;48.398;11.736;2023-08-24T01:00:56;20.80;99.90
12268;DHT22;6196;48.398;11.736;2023-08-24T01:03:24;20.80;99.90
12268;DHT22;6196;48.398;11.736;2023-08-24T01:05:51;20.70;99.90
12268;DHT22;6196;48.398;11.736;2023-08-24T01:08:20;20.70;99.90
12268;DHT22;6196;48.398;11.736;2023-08-24T01:17:13;20.60;99.90
12268;DHT22;6196;48.398;11.736;2023-08-24T01:19:46;20.60;99.90
12268;DHT22;6196;48.398;11.736;2023-08-24T01:22:44;20.50;99.90
12268;DHT22;6196;48.398;11.736;2023-08-24T01:28:22;20.40;99.90
12268;DHT22;6196;48.398;11.736;2023-08-24T01:30:49;20.30;99.90
12268;DHT22;6196;48.398;11.736;2023-08-24T01:33:17;20.30;99.90
12268;DHT22;6196;48.398;11.736;2023-08-24T01:35:44;20.30;99.90
12268;DHT22;6196;48.398;11.736;2023-08-24T01:38:10;20.10;99.90
12268;DHT22;6196;48.398;11.736;2023-08-24T01:43:30;20.00;99.90
12268;DHT22;6196;48.398;11.736;2023-08-24T01:46:13;20.00;99.90
12268;DHT22;6196;48.398;11.736;2023-08-24T01:48:42;20.00;99.90
12268;DHT22;6196;48.398;11.736;2023-08-24T01:51:10;20.00;99.90
12268;DHT22;6196;48.398;11.736;2023-08-24T01:53:39;20.00;99.90
12268;DHT22;6196;48.398;11.736;2023-08-24T01:56:15;19.90;99.90
12268;DHT22;6196;48.398;11.736;2023-08-24T01:58:42;19.90;99.90
12268;DHT22;6196;48.398;11.736;2023-08-24T02:01:09;19.90;99.90
12268;DHT22;6196;48.398;11.736;2023-08-24T02:03:37;19.80;99.90
12268;DHT22;6196;48.398;11.736;2023-08-24T02:06:06;19.70;99.90
12268;DHT22;6196;48.398;11.736;2023-08-24T02:08:33;19.60;99.90
12268;DHT22;6196;48.398;11.736;2023-08-24T02:11:00;19.50;99.90
12268;DHT22;6196;48.398;11.736;2023-08-24T02:13:27;19.60;99.90
12268;DHT22;6196;48.398;11.736;2023-08-24T02:16:02;19.40;99.90
12268;DHT22;6196;48.398;11.736;2023-08-24T02:18:30;19.40;99.90
12268;DHT22;6196;48.398;11.736;2023-08-24T02:20:57;19.50;99.90
12268;DHT22;6196;48.398;11.736;2023-08-24T02:23:24;19.50;99.90
12268;DHT22;6196;48.398;11.736;2023-08-24T02:25:51;19.40;99.90
12268;DHT22;6196;48.398;11.736;2023-08-24T02:28:18;19.40;99.90
12268;DHT22;6196;48.398;11.736;2023-08-24T02:30:45;19.40;99.90
12268;DHT22;6196;48.398;11.736;2023-08-24T02:33:12;19.50;99.90
12268;DHT22;6196;48.398;11.736;2023-08-24T02:35:38;19.60;99.90
12268;DHT22;6196;48.398;11.736;2023-08-24T02:38:06;19.60;99.90
12268;DHT22;6196;48.398;11.736;2023-08-24T02:40:32;19.60;99.90
12268;DHT22;6196;48.398;11.736;2023-08-24T02:42:59;19.60;99.90
12268;DHT22;6196;48.398;11.736;2023-08-24T02:45:26;19.60;99.90
12268;DHT22;6196;48.398;11.736;2023-08-24T02:47:53;19.70;99.90
12268;DHT22;6196;48.398;11.736;2023-08-24T02:50:20;19.60;99.90
12268;DHT22;6196;48.398;11.736;2023-08-24T02:52:48;19.60;99.90
12268;DHT22;6196;48.398;11.736;2023-08-24T02:55:15;19.60;99.90
12268;DHT22;6196;48.398;11.736;2023-08-24T02:57:41;19.60;99.90
12268;DHT22;6196;48.398;11.736;2023-08-24T03:00:09;19.60;99.90
12268;DHT22;6196;48.398;11.736;2023-08-24T03:02:36;19.60;99.90
12268;DHT22;6196;48.398;11.736;2023-08-24T03:05:03;19.60;99.90
12268;DHT22;6196;48.398;11.736;2023-08-24T03:07:30;19.60;99.90
12268;DHT22;6196;48.398;11.736;2023-08-24T03:09:57;19.50;99.90
12268;DHT22;6196;48.398;11.736;2023-08-24T03:12:24;19.40;99.90
12268;DHT22;6196;48.398;11.736;2023-08-24T03:14:52;19.30;99.90
12268;DHT22;6196;48.398;11.736;2023-08-24T03:17:21;19.30;99.90
12268;DHT22;6196;48.398;11.736;2023-08-24T03:19:48;19.30;99.90
12268;DHT22;6196;48.398;11.736;2023-08-24T03:22:15;19.30;99.90
12268;DHT22;6196;48.398;11.736;2023-08-24T03:24:41;19.30;99.90
12268;DHT22;6196;48.398;11.736;2023-08-24T03:27:08;19.20;99.90
12268;DHT22;6196;48.398;11.736;2023-08-24T03:29:35;19.20;99.90
12268;DHT22;6196;48.398;11.736;2023-08-24T03:32:02;19.30;99.90
12268;DHT22;6196;48.398;11.736;2023-08-24T03:34:29;19.30;99.90
12268;DHT22;6196;48.398;11.736;2023-08-24T03:36:57;19.30;99.90
12268;DHT22;6196;48.398;11.736;2023-08-24T03:39:24;19.30;99.90
12268;DHT22;6196;48.398;11.736;2023-08-24T03:41:51;19.30;99.90
12268;DHT22;6196;48.398;11.736;2023-08-24T03:44:18;19.30;99.90
12268;DHT22;6196;48.398;11.736;2023-08-24T03:46:45;19.40;99.90
12268;DHT22;6196;48.398;11.736;2023-08-24T03:49:12;19.40;99.90
12268;DHT22;6196;48.398;11.736;2023-08-24T03:51:39;19.40;99.90
12268;DHT22;6196;48.398;11.736;2023-08-24T03:54:06;19.40;99.90
12268;DHT22;6196;48.398;11.736;2023-08-24T03:56:33;19.40;99.90
12268;DHT22;6196;48.398;11.736;2023-08-24T03:59:00;19.40;99.90
12268;DHT22;6196;48.398;11.736;2023-08-24T04:01:27;19.50;99.90
12268;DHT22;6196;48.398;11.736;2023-08-24T04:03:53;19.50;99.90
12268;DHT22;6196;48.398;11.736;2023-08-24T04:06:20;19.50;99.90
12268;DHT22;6196;48.398;11.736;2023-08-24T04:08:47;19.50;99.90
12268;DHT22;6196;48.398;11.736;2023-08-24T04:11:14;19.50;99.90
12268;DHT22;6196;48.398;11.736;2023-08-24T04:13:41;19.50;99.90
12268;DHT22;6196;48.398;11.736;2023-08-24T04:16:08;19.50;99.90
12268;DHT22;6196;48.398;11.736;2023-08-24T04:18:35;19.40;99.90
12268;DHT22;6196;48.398;11.736;2023-08-24T04:21:02;19.50;99.90
12268;DHT22;6196;48.398;11.736;2023-08-24T04:23:29;19.50;99.90
12268;DHT22;6196;48.398;11.736;2023-08-24T04:25:56;19.50;99.90
12268;DHT22;6196;48.398;11.736;2023-08-24T04:28:23;19.60;99.90
12268;DHT22;6196;48.398;11.736;2023-08-24T04:30:51;19.60;99.90
12268;DHT22;6196;48.398;11.736;2023-08-24T04:33:19;19.60;99.90
12268;DHT22;6196;48.398;11.736;2023-08-24T04:35:49;19.60;99.90
12268;DHT22;6196;48.398;11.736;2023-08-24T04:38:17;19.50;99.90
12268;DHT22;6196;48.398;11.736;2023-08-24T04:40:50;19.40;99.90
12268;DHT22;6196;48.398;11.736;2023-08-24T04:43:18;19.40;99.90
12268;DHT22;6196;48.398;11.736;2023-08-24T04:45:50;19.40;99.90
12268;DHT22;6196;48.398;11.736;2023-08-24T04:48:22;19.30;99.90
12268;DHT22;6196;48.398;11.736;2023-08-24T04:50:50;19.20;99.90
12268;DHT22;6196;48.398;11.736;2023-08-24T04:53:18;19.10;99.90
12268;DHT22;6196;48.398;11.736;2023-08-24T04:55:46;19.20;99.90
12268;DHT22;6196;48.398;11.736;2023-08-24T04:58:13;19.20;99.90
12268;DHT22;6196;48.398;11.736;2023-08-24T05:00:40;19.30;99.90
12268;DHT22;6196;48.398;11.736;2023-08-24T05:03:08;19.30;99.90
12268;DHT22;6196;48.398;11.736;2023-08-24T05:05:37;19.30;99.90
12268;DHT22;6196;48.398;11.736;2023-08-24T05:08:05;19.40;99.90
12268;DHT22;6196;48.398;11.736;2023-08-24T05:10:33;19.40;99.90
12268;DHT22;6196;48.398;11.736;2023-08-24T05:13:00;19.50;99.90
12268;DHT22;6196;48.398;11.736;2023-08-24T05:15:28;19.60;99.90
12268;DHT22;6196;48.398;11.736;2023-08-24T05:17:55;19.60;99.90
12268;DHT22;6196;48.398;11.736;2023-08-24T05:20:23;19.60;99.90
12268;DHT22;6196;48.398;11.736;2023-08-24T05:22:50;19.70;99.90
12268;DHT22;6196;48.398;11.736;2023-08-24T05:25:17;19.80;99.90
12268;DHT22;6196;48.398;11.736;2023-08-24T05:27:44;19.90;99.90
12268;DHT22;6196;48.398;11.736;2023-08-24T05:30:11;20.00;99.90
12268;DHT22;6196;48.398;11.736;2023-08-24T05:32:38;20.10;99.90
12268;DHT22;6196;48.398;11.736;2023-08-24T05:35:06;20.20;99.90
12268;DHT22;6196;48.398;11.736;2023-08-24T05:37:34;20.40;99.90
12268;DHT22;6196;48.398;11.736;2023-08-24T05:40:02;20.60;99.90
12268;DHT22;6196;48.398;11.736;2023-08-24T05:42:30;20.70;99.90
12268;DHT22;6196;48.398;11.736;2023-08-24T05:44:57;20.80;99.90
12268;DHT22;6196;48.398;11.736;2023-08-24T05:47:24;20.80;99.90
12268;DHT22;6196;48.398;11.736;2023-08-24T05:49:51;20.90;99.90
12268;DHT22;6196;48.398;11.736;2023-08-24T05:52:18;21.00;99.90
12268;DHT22;6196;48.398;11.736;2023-08-24T05:54:45;21.20;99.90
12268;DHT22;6196;48.398;11.736;2023-08-24T05:57:12;21.30;99.90
12268;DHT22;6196;48.398;11.736;2023-08-24T05:59:39;21.50;99.90
12268;DHT22;6196;48.398;11.736;2023-08-24T06:02:05;21.60;99.90
12268;DHT22;6196;48.398;11.736;2023-08-24T06:04:32;21.70;99.90
12268;DHT22;6196;48.398;11.736;2023-08-24T06:06:59;21.70;99.90
12268;DHT22;6196;48.398;11.736;2023-08-24T06:09:26;21.90;99.90
12268;DHT22;6196;48.398;11.736;2023-08-24T06:11:53;21.70;99.90
12268;DHT22;6196;48.398;11.736;2023-08-24T06:14:20;21.80;99.90
12268;DHT22;6196;48.398;11.736;2023-08-24T06:16:47;22.00;99.90
12268;DHT22;6196;48.398;11.736;2023-08-24T06:19:15;22.20;99.90
12268;DHT22;6196;48.398;11.736;2023-08-24T06:21:42;22.40;99.90
12268;DHT22;6196;48.398;11.736;2023-08-24T06:24:09;22.70;99.90
12268;DHT22;6196;48.398;11.736;2023-08-24T06:26:36;23.00;99.90
12268;DHT22;6196;48.398;11.736;2023-08-24T06:29:03;23.20;99.90
12268;DHT22;6196;48.398;11.736;2023-08-24T06:31:30;23.40;99.90
12268;DHT22;6196;48.398;11.736;2023-08-24T06:33:58;23.50;99.90
12268;DHT22;6196;48.398;11.736;2023-08-24T06:36:25;23.70;99.90
12268;DHT22;6196;48.398;11.736;2023-08-24T06:38:52;23.80;99.90
12268;DHT22;6196;48.398;11.736;2023-08-24T06:41:19;24.00;99.90
12268;DHT22;6196;48.398;11.736;2023-08-24T06:43:46;24.20;99.90
12268;DHT22;6196;48.398;11.736;2023-08-24T06:46:14;24.30;99.90
12268;DHT22;6196;48.398;11.736;2023-08-24T06:48:41;24.60;99.90
12268;DHT22;6196;48.398;11.736;2023-08-24T06:51:11;24.70;99.90
12268;DHT22;6196;48.398;11.736;2023-08-24T06:53:38;24.80;99.90
12268;DHT22;6196;48.398;11.736;2023-08-24T06:56:05;25.00;99.90
12268;DHT22;6196;48.398;11.736;2023-08-24T06:58:32;25.20;99.90
12268;DHT22;6196;48.398;11.736;2023-08-24T07:00:59;25.40;99.90
12268;DHT22;6196;48.398;11.736;2023-08-24T07:03:26;25.60;99.90
12268;DHT22;6196;48.398;11.736;2023-08-24T07:05:53;25.70;99.90
12268;DHT22;6196;48.398;11.736;2023-08-24T07:08:20;25.90;99.90
12268;DHT22;6196;48.398;11.736;2023-08-24T07:10:47;25.90;99.90
12268;DHT22;6196;48.398;11.736;2023-08-24T07:13:13;25.90;99.90
12268;DHT22;6196;48.398;11.736;2023-08-24T07:15:40;25.90;99.90
12268;DHT22;6196;48.398;11.736;2023-08-24T07:18:08;26.00;99.90
12268;DHT22;6196;48.398;11.736;2023-08-24T07:20:37;26.10;99.90
12268;DHT22;6196;48.398;11.736;2023-08-24T07:23:04;26.30;99.90
12268;DHT22;6196;48.398;11.736;2023-08-24T07:25:31;26.10;99.90
12268;DHT22;6196;48.398;11.736;2023-08-24T07:27:58;26.00;99.90
12268;DHT22;6196;48.398;11.736;2023-08-24T07:30:26;25.90;99.90
12268;DHT22;6196;48.398;11.736;2023-08-24T07:33:01;25.70;99.90
12268;DHT22;6196;48.398;11.736;2023-08-24T07:35:30;25.60;99.90
12268;DHT22;6196;48.398;11.736;2023-08-24T07:37:57;25.70;99.90
12268;DHT22;6196;48.398;11.736;2023-08-24T07:40:24;26.10;99.90
12268;DHT22;6196;48.398;11.736;2023-08-24T07:42:52;26.60;99.90
12268;DHT22;6196;48.398;11.736;2023-08-24T07:45:21;26.90;99.90
12268;DHT22;6196;48.398;11.736;2023-08-24T07:47:49;27.20;99.90
12268;DHT22;6196;48.398;11.736;2023-08-24T07:50:17;27.60;99.90
12268;DHT22;6196;48.398;11.736;2023-08-24T07:52:44;27.40;99.90
12268;DHT22;6196;48.398;11.736;2023-08-24T07:55:11;27.60;99.90
12268;DHT22;6196;48.398;11.736;2023-08-24T07:57:38;27.60;99.90
12268;DHT22;6196;48.398;11.736;2023-08-24T08:00:05;27.70;99.90
12268;DHT22;6196;48.398;11.736;2023-08-24T08:02:36;27.80;99.90
12268;DHT22;6196;48.398;11.736;2023-08-24T08:05:04;27.80;99.90
12268;DHT22;6196;48.398;11.736;2023-08-24T08:07:34;27.80;99.90
12268;DHT22;6196;48.398;11.736;2023-08-24T08:10:01;28.00;99.90
12268;DHT22;6196;48.398;11.736;2023-08-24T08:12:28;28.10;99.90
12268;DHT22;6196;48.398;11.736;2023-08-24T08:14:58;28.40;99.90
12268;DHT22;6196;48.398;11.736;2023-08-24T08:17:26;28.50;99.90
12268;DHT22;6196;48.398;11.736;2023-08-24T08:19:57;28.30;99.90
12268;DHT22;6196;48.398;11.736;2023-08-24T08:22:24;28.10;99.90
12268;DHT22;6196;48.398;11.736;2023-08-24T08:24:54;28.40;99.90
12268;DHT22;6196;48.398;11.736;2023-08-24T08:27:23;28.40;99.90
12268;DHT22;6196;48.398;11.736;2023-08-24T08:29:50;28.70;99.90
12268;DHT22;6196;48.398;11.736;2023-08-24T08:32:17;28.90;99.90
12268;DHT22;6196;48.398;11.736;2023-08-24T08:34:44;29.30;99.90
12268;DHT22;6196;48.398;11.736;2023-08-24T08:37:11;29.30;99.90
12268;DHT22;6196;48.398;11.736;2023-08-24T08:39:38;29.40;99.90
12268;DHT22;6196;48.398;11.736;2023-08-24T08:42:11;29.00;99.90
12268;DHT22;6196;48.398;11.736;2023-08-24T08:44:39;29.10;99.90
12268;DHT22;6196;48.398;11.736;2023-08-24T08:47:07;29.20;99.90
12268;DHT22;6196;48.398;11.736;2023-08-24T08:49:38;29.20;99.90
12268;DHT22;6196;48.398;11.736;2023-08-24T08:52:06;29.40;99.90
12268;DHT22;6196;48.398;11.736;2023-08-24T08:54:33;29.40;99.90
12268;DHT22;6196;48.398;11.736;2023-08-24T08:57:01;29.60;99.90
12268;DHT22;6196;48.398;11.736;2023-08-24T08:59:28;29.60;99.90
12268;DHT22;6196;48.398;11.736;2023-08-24T09:01:57;29.60;99.90
12268;DHT22;6196;48.398;11.736;2023-08-24T09:04:25;30.00;99.90
12268;DHT22;6196;48.398;11.736;2023-08-24T09:06:52;30.10;99.90
12268;DHT22;6196;48.398;11.736;2023-08-24T09:09:19;30.00;99.90
12268;DHT22;6196;48.398;11.736;2023-08-24T09:11:46;30.10;99.90
12268;DHT22;6196;48.398;11.736;2023-08-24T09:14:14;30.40;99.90
12268;DHT22;6196;48.398;11.736;2023-08-24T09:16:41;30.70;99.90
12268;DHT22;6196;48.398;11.736;2023-08-24T09:19:11;30.80;99.90
12268;DHT22;6196;48.398;11.736;2023-08-24T09:21:39;31.00;99.90
12268;DHT22;6196;48.398;11.736;2023-08-24T09:24:08;31.00;99.90
12268;DHT22;6196;48.398;11.736;2023-08-24T09:26:37;30.90;99.90
12268;DHT22;6196;48.398;11.736;2023-08-24T09:29:13;30.70;99.90
12268;DHT22;6196;48.398;11.736;2023-08-24T09:31:42;30.80;99.90
12268;DHT22;6196;48.398;11.736;2023-08-24T09:34:12;31.00;99.90
12268;DHT22;6196;48.398;11.736;2023-08-24T09:36:40;31.00;99.90
12268;DHT22;6196;48.398;11.736;2023-08-24T09:39:07;30.80;99.90
12268;DHT22;6196;48.398;11.736;2023-08-24T09:41:41;30.90;99.90
12268;DHT22;6196;48.398;11.736;2023-08-24T09:44:10;30.80;99.90
12268;DHT22;6196;48.398;11.736;2023-08-24T09:46:39;31.00;99.90
12268;DHT22;6196;48.398;11.736;2023-08-24T09:49:07;31.40;99.90
12268;DHT22;6196;48.398;11.736;2023-08-24T09:51:36;31.70;99.90
12268;DHT22;6196;48.398;11.736;2023-08-24T09:54:05;31.50;99.90
12268;DHT22;6196;48.398;11.736;2023-08-24T09:56:39;31.40;99.90
12268;DHT22;6196;48.398;11.736;2023-08-24T09:59:12;31.70;99.90
12268;DHT22;6196;48.398;11.736;2023-08-24T10:01:44;31.30;99.90
12268;DHT22;6196;48.398;11.736;2023-08-24T10:04:15;31.40;99.90
12268;DHT22;6196;48.398;11.736;2023-08-24T10:06:48;31.40;99.90
12268;DHT22;6196;48.398;11.736;2023-08-24T10:09:22;31.10;99.90
12268;DHT22;6196;48.398;11.736;2023-08-24T10:11:58;31.30;99.90
12268;DHT22;6196;48.398;11.736;2023-08-24T10:14:31;31.30;99.90
12268;DHT22;6196;48.398;11.736;2023-08-24T10:17:01;31.10;99.90
12268;DHT22;6196;48.398;11.736;2023-08-24T10:19:28;31.00;99.90
12268;DHT22;6196;48.398;11.736;2023-08-24T10:21:57;31.10;99.90
12268;DHT22;6196;48.398;11.736;2023-08-24T10:24:24;31.20;99.90
12268;DHT22;6196;48.398;11.736;2023-08-24T10:26:52;31.40;99.90
12268;DHT22;6196;48.398;11.736;2023-08-24T10:29:21;31.80;99.90
12268;DHT22;6196;48.398;11.736;2023-08-24T10:31:49;32.10;99.90
12268;DHT22;6196;48.398;11.736;2023-08-24T10:34:16;32.30;99.90
12268;DHT22;6196;48.398;11.736;2023-08-24T10:36:47;32.20;99.90
12268;DHT22;6196;48.398;11.736;2023-08-24T10:39:15;32.10;99.90
12268;DHT22;6196;48.398;11.736;2023-08-24T10:41:52;32.10;99.90
12268;DHT22;6196;48.398;11.736;2023-08-24T10:44:36;32.10;99.90
12268;DHT22;6196;48.398;11.736;2023-08-24T10:47:15;32.10;99.90
12268;DHT22;6196;48.398;11.736;2023-08-24T10:52:30;32.10;99.90
12268;DHT22;6196;48.398;11.736;2023-08-24T10:55:05;32.10;99.90
12268;DHT22;6196;48.398;11.736;2023-08-24T10:57:56;32.30;99.90
12268;DHT22;6196;48.398;11.736;2023-08-24T11:00:29;32.50;99.90
12268;DHT22;6196;48.398;11.736;2023-08-24T11:02:57;33.00;99.90
12268;DHT22;6196;48.398;11.736;2023-08-24T11:05:28;33.00;99.90
12268;DHT22;6196;48.398;11.736;2023-08-24T11:08:05;32.60;99.90
12268;DHT22;6196;48.398;11.736;2023-08-24T11:13:11;32.40;99.90
12268;DHT22;6196;48.398;11.736;2023-08-24T11:15:46;32.50;99.90
12268;DHT22;6196;48.398;11.736;2023-08-24T11:20:55;32.50;99.90
12268;DHT22;6196;48.398;11.736;2023-08-24T11:23:26;32.80;99.90
12268;DHT22;6196;48.398;11.736;2023-08-24T11:25:54;32.90;99.90
12268;DHT22;6196;48.398;11.736;2023-08-24T11:28:27;33.00;99.90
12268;DHT22;6196;48.398;11.736;2023-08-24T11:30:56;33.10;99.90
12268;DHT22;6196;48.398;11.736;2023-08-24T11:33:31;33.10;99.90
12268;DHT22;6196;48.398;11.736;2023-08-24T11:36:00;33.20;99.90
12268;DHT22;6196;48.398;11.736;2023-08-24T11:38:40;33.50;99.90
12268;DHT22;6196;48.398;11.736;2023-08-24T11:41:15;33.40;99.90
12268;DHT22;6196;48.398;11.736;2023-08-24T11:43:47;33.50;99.90
12268;DHT22;6196;48.398;11.736;2023-08-24T11:46:17;33.50;99.90
12268;DHT22;6196;48.398;11.736;2023-08-24T11:48:45;33.50;99.90
12268;DHT22;6196;48.398;11.736;2023-08-24T11:51:13;33.50;99.90
12268;DHT22;6196;48.398;11.736;2023-08-24T11:53:46;33.60;99.90
12268;DHT22;6196;48.398;11.736;2023-08-24T11:56:14;33.80;99.90
12268;DHT22;6196;48.398;11.736;2023-08-24T11:58:49;33.90;99.90
12268;DHT22;6196;48.398;11.736;2023-08-24T12:01:19;34.20;99.90
12268;DHT22;6196;48.398;11.736;2023-08-24T12:03:46;33.80;99.90
12268;DHT22;6196;48.398;11.736;2023-08-24T12:06:15;33.80;99.90
12268;DHT22;6196;48.398;11.736;2023-08-24T12:08:45;33.60;99.90
12268;DHT22;6196;48.398;11.736;2023-08-24T12:11:18;33.40;99.90
12268;DHT22;6196;48.398;11.736;2023-08-24T12:13:50;33.50;99.90
12268;DHT22;6196;48.398;11.736;2023-08-24T12:16:20;33.80;99.90
12268;DHT22;6196;48.398;11.736;2023-08-24T12:21:20;33.80;99.90
12268;DHT22;6196;48.398;11.736;2023-08-24T12:24:00;34.20;99.90
12268;DHT22;6196;48.398;11.736;2023-08-24T12:26:30;34.50;99.90
12268;DHT22;6196;48.398;11.736;2023-08-24T12:29:07;34.40;99.90
12268;DHT22;6196;48.398;11.736;2023-08-24T12:31:36;34.50;99.90
12268;DHT22;6196;48.398;11.736;2023-08-24T12:34:04;34.70;99.90
12268;DHT22;6196;48.398;11.736;2023-08-24T12:36:33;34.80;99.90
12268;DHT22;6196;48.398;11.736;2023-08-24T12:39:03;35.00;99.90
12268;DHT22;6196;48.398;11.736;2023-08-24T12:41:31;35.50;99.90
12268;DHT22;6196;48.398;11.736;2023-08-24T12:43:58;35.40;99.90
12268;DHT22;6196;48.398;11.736;2023-08-24T12:46:26;35.50;99.90
12268;DHT22;6196;48.398;11.736;2023-08-24T12:48:54;35.40;99.90
12268;DHT22;6196;48.398;11.736;2023-08-24T12:51:22;35.50;99.90
12268;DHT22;6196;48.398;11.736;2023-08-24T12:53:51;35.60;99.90
12268;DHT22;6196;48.398;11.736;2023-08-24T12:56:18;35.50;99.90
12268;DHT22;6196;48.398;11.736;2023-08-24T12:58:45;35.60;99.90
12268;DHT22;6196;48.398;11.736;2023-08-24T13:01:12;35.70;99.90
12268;DHT22;6196;48.398;11.736;2023-08-24T13:03:39;35.80;99.90
12268;DHT22;6196;48.398;11.736;2023-08-24T13:06:06;35.60;99.90
12268;DHT22;6196;48.398;11.736;2023-08-24T13:08:49;35.30;99.90
12268;DHT22;6196;48.398;11.736;2023-08-24T13:11:16;35.80;99.90
12268;DHT22;6196;48.398;11.736;2023-08-24T13:13:43;35.90;99.90
12268;DHT22;6196;48.398;11.736;2023-08-24T13:16:12;36.10;99.90
12268;DHT22;6196;48.398;11.736;2023-08-24T13:18:39;36.00;99.90
12268;DHT22;6196;48.398;11.736;2023-08-24T13:21:06;35.80;99.90
12268;DHT22;6196;48.398;11.736;2023-08-24T13:23:33;35.70;99.90
12268;DHT22;6196;48.398;11.736;2023-08-24T13:26:01;35.60;99.90
12268;DHT22;6196;48.398;11.736;2023-08-24T13:28:28;35.60;99.90
12268;DHT22;6196;48.398;11.736;2023-08-24T13:30:56;35.40;99.90
12268;DHT22;6196;48.398;11.736;2023-08-24T13:33:23;36.10;99.90
12268;DHT22;6196;48.398;11.736;2023-08-24T13:35:50;36.00;99.90
12268;DHT22;6196;48.398;11.736;2023-08-24T13:38:17;36.30;99.90
12268;DHT22;6196;48.398;11.736;2023-08-24T13:40:44;36.50;99.90
12268;DHT22;6196;48.398;11.736;2023-08-24T13:43:14;36.50;99.90
12268;DHT22;6196;48.398;11.736;2023-08-24T13:45:41;36.60;99.90
12268;DHT22;6196;48.398;11.736;2023-08-24T13:48:08;36.90;99.90
12268;DHT22;6196;48.398;11.736;2023-08-24T13:50:35;37.30;99.90
12268;DHT22;6196;48.398;11.736;2023-08-24T13:53:02;36.80;99.90
12268;DHT22;6196;48.398;11.736;2023-08-24T13:55:29;36.50;99.90
12268;DHT22;6196;48.398;11.736;2023-08-24T13:57:57;36.20;99.90
12268;DHT22;6196;48.398;11.736;2023-08-24T14:00:24;36.00;99.90
12268;DHT22;6196;48.398;11.736;2023-08-24T14:02:52;36.00;99.90
12268;DHT22;6196;48.398;11.736;2023-08-24T14:05:19;36.40;99.90
12268;DHT22;6196;48.398;11.736;2023-08-24T14:07:46;37.30;99.90
12268;DHT22;6196;48.398;11.736;2023-08-24T14:10:13;38.10;99.90
12268;DHT22;6196;48.398;11.736;2023-08-24T14:12:40;37.50;99.90
12268;DHT22;6196;48.398;11.736;2023-08-24T14:15:07;36.90;99.90
12268;DHT22;6196;48.398;11.736;2023-08-24T14:17:34;37.20;99.90
12268;DHT22;6196;48.398;11.736;2023-08-24T14:20:02;37.40;99.90
12268;DHT22;6196;48.398;11.736;2023-08-24T14:22:30;37.80;99.90
12268;DHT22;6196;48.398;11.736;2023-08-24T14:24:57;38.50;99.90
12268;DHT22;6196;48.398;11.736;2023-08-24T14:27:24;38.70;99.90
12268;DHT22;6196;48.398;11.736;2023-08-24T14:29:51;39.50;99.90
12268;DHT22;6196;48.398;11.736;2023-08-24T14:32:18;40.30;98.10
12268;DHT22;6196;48.398;11.736;2023-08-24T14:34:45;41.00;96.70
12268;DHT22;6196;48.398;11.736;2023-08-24T14:37:12;40.30;96.10
12268;DHT22;6196;48.398;11.736;2023-08-24T14:39:39;39.70;96.30
12268;DHT22;6196;48.398;11.736;2023-08-24T14:42:06;39.20;97.00
12268;DHT22;6196;48.398;11.736;2023-08-24T14:44:33;38.90;96.80
12268;DHT22;6196;48.398;11.736;2023-08-24T14:47:01;38.90;96.20
12268;DHT22;6196;48.398;11.736;2023-08-24T14:49:28;38.40;96.60
12268;DHT22;6196;48.398;11.736;2023-08-24T14:51:55;37.90;96.80
12268;DHT22;6196;48.398;11.736;2023-08-24T14:54:22;37.60;97.70
12268;DHT22;6196;48.398;11.736;2023-08-24T14:56:49;37.60;97.50
12268;DHT22;6196;48.398;11.736;2023-08-24T14:59:16;37.80;98.00
12268;DHT22;6196;48.398;11.736;2023-08-24T15:01:43;38.00;98.00
12268;DHT22;6196;48.398;11.736;2023-08-24T15:04:11;37.90;97.00
12268;DHT22;6196;48.398;11.736;2023-08-24T15:06:38;37.30;97.80
12268;DHT22;6196;48.398;11.736;2023-08-24T15:09:05;36.70;97.60
12268;DHT22;6196;48.398;11.736;2023-08-24T15:11:33;36.40;98.60
12268;DHT22;6196;48.398;11.736;2023-08-24T15:13:59;36.80;97.80
12268;DHT22;6196;48.398;11.736;2023-08-24T15:16:26;37.60;96.60
12268;DHT22;6196;48.398;11.736;2023-08-24T15:18:53;38.50;96.00
12268;DHT22;6196;48.398;11.736;2023-08-24T15:21:20;39.30;95.30
12268;DHT22;6196;48.398;11.736;2023-08-24T15:23:47;40.00;93.70
12268;DHT22;6196;48.398;11.736;2023-08-24T15:26:14;40.10;92.80
12268;DHT22;6196;48.398;11.736;2023-08-24T15:29:06;40.10;93.00
12268;DHT22;6196;48.398;11.736;2023-08-24T15:31:34;39.60;93.00
12268;DHT22;6196;48.398;11.736;2023-08-24T15:34:01;39.50;93.40
12268;DHT22;6196;48.398;11.736;2023-08-24T15:36:28;38.80;93.10
12268;DHT22;6196;48.398;11.736;2023-08-24T15:38:55;37.90;94.00
12268;DHT22;6196;48.398;11.736;2023-08-24T15:41:21;36.60;95.60
12268;DHT22;6196;48.398;11.736;2023-08-24T15:43:49;35.80;96.70
12268;DHT22;6196;48.398;11.736;2023-08-24T15:46:16;35.00;97.30
12268;DHT22;6196;48.398;11.736;2023-08-24T15:48:43;34.40;98.30
12268;DHT22;6196;48.398;11.736;2023-08-24T15:51:10;33.80;99.00
12268;DHT22;6196;48.398;11.736;2023-08-24T15:53:37;33.10;99.90
12268;DHT22;6196;48.398;11.736;2023-08-24T15:56:04;32.80;99.90
12268;DHT22;6196;48.398;11.736;2023-08-24T15:58:31;32.60;99.90
12268;DHT22;6196;48.398;11.736;2023-08-24T16:00:58;32.60;99.90